This is the latest recevied weather packets stored in our database for station/object KI5MKI. If no packets are shown the sender has not sent any weather packets the latest 10 day(s).
| Time | Temp. | Humidity | Pressure | Rain* | Wind** | Luminosity | Snow |
|---|---|---|---|---|---|---|---|
| 1777902594 | 18.33° C | 66% | 1014.7 hPa | 0 mm | - | 117 W/m² | - |
| 1777902291 | 18.33° C | 67% | 1014.7 hPa | 0 mm | - | 124 W/m² | - |
| 1777901989 | 17.78° C | 69% | 1014.9 hPa | 0 mm | - | 128 W/m² | - |
| 1777901687 | 17.78° C | 69% | 1014.9 hPa | 0 mm | - | 111 W/m² | - |
| 1777901384 | 17.78° C | 71% | 1014.6 hPa | 0 mm | - | 101 W/m² | - |
| 1777901082 | 17.78° C | 71% | 1014.6 hPa | 0 mm | - | 95 W/m² | - |
| 1777900778 | 17.22° C | 71% | 1014.7 hPa | 0 mm | - | 100 W/m² | - |
| 1777900476 | 17.22° C | 71% | 1014.7 hPa | 0 mm | - | 86 W/m² | - |
| 1777900173 | 17.22° C | 71% | 1014.7 hPa | 0 mm | - | 81 W/m² | - |
| 1777899869 | 17.22° C | 71% | 1014.8 hPa | 0 mm | - | 75 W/m² | - |
| 1777899566 | 16.67° C | 71% | 1014.8 hPa | 0 mm | - | 72 W/m² | - |
| 1777899264 | 16.67° C | 72% | 1014.8 hPa | 0 mm | - | 74 W/m² | - |
| 1777898961 | 16.67° C | 72% | 1014.6 hPa | 0 mm | - | 73 W/m² | - |
| 1777898658 | 16.67° C | 73% | 1014.5 hPa | 0 mm | - | 69 W/m² | - |
| 1777898355 | 16.11° C | 73% | 1014.7 hPa | 0 mm | - | 63 W/m² | - |
| 1777898053 | 16.11° C | 74% | 1014.6 hPa | 0 mm | - | 56 W/m² | - |
| 1777897749 | 15.56° C | 75% | 1014.6 hPa | 0 mm | - | 53 W/m² | - |
| 1777897445 | 15.56° C | 76% | 1014.4 hPa | 0 mm | - | 52 W/m² | - |
| 1777897141 | 15° C | 77% | 1014.4 hPa | 0 mm | - | 46 W/m² | - |
| 1777896837 | 15° C | 78% | 1014.5 hPa | 0 mm | - | 38 W/m² | - |
| 1777896535 | 15° C | 78% | 1014.4 hPa | 0 mm | - | 31 W/m² | - |
| 1777896232 | 15° C | 78% | 1014.2 hPa | 0 mm | - | 25 W/m² | - |
| 1777895930 | 14.44° C | 79% | 1014.3 hPa | 0 mm | - | 21 W/m² | - |
| 1777895627 | 15° C | 78% | 1014.2 hPa | 0 mm | - | 17 W/m² | - |
| 1777895324 | 15° C | 78% | 1014 hPa | 0 mm | - | 13 W/m² | - |
* Rain latest hour (hover to see other rain measurements)
** Current wind speed in m/s (hover to see current wind gust speed)